Traveler — WDE9485 — position and weather

sailwx.info

Track history (hours):
 
Tides and Currents Weather Stations Pressure Air Temp Water Temp Dewpoint Dewpoint Depression Visibility Wind Speed Wind Dir Waves Ship Positions

Traveler

Owner: Obel, Patrick R, Marina del Rey, CA. More information available from US FCC via Universal Licensing System and Coast Guard Vessel Documentation Center.

Last reported at 2017-Sep-12 05:50 UTC. Time now 2017-Sep-22 20:40 UTC.
Position N 33°59' W 118°27'.
Warning: this ship's position is 10 days out of date.

Length 19 m; draft 2 m.

Type: Other ship. MMSI: 367417780.

Date/timePositionNaut miles runAvg speedWind from/ knotsBaromVisibWave heightAir tempDewpointWater temp
2017-Sep-12 05:50N 33°59' W 118°27'0 0.0
2017-Sep-11 11:08N 33°59' W 118°27'0 0.0
2017-Sep-11 10:56N 33°59' W 118°27'0 0.0
2017-Sep-11 10:20N 33°59' W 118°27'0 0.0
2017-Sep-11 09:59N 33°59' W 118°27'0 0.0
2017-Sep-11 09:20N 33°59' W 118°27'0 0.0
2017-Sep-11 08:59N 33°59' W 118°27'0 0.0
2017-Sep-11 08:29N 33°59' W 118°27'0 0.0
2017-Sep-11 05:02N 33°59' W 118°27'0 0.0
2017-Sep-11 04:32N 33°59' W 118°27'0 0.0
2017-Sep-11 04:20N 33°59' W 118°27'0 0.0
2017-Sep-10 15:26N 33°59' W 118°27'0 0.0
2017-Sep-10 14:50N 33°59' W 118°27'0 0.0
2017-Sep-10 13:56N 33°59' W 118°27'0 0.0
2017-Sep-10 12:44N 33°59' W 118°27'0 0.0
2017-Sep-10 12:26N 33°59' W 118°27'0 0.0
2017-Sep-10 11:56N 33°59' W 118°27'0 0.0
2017-Sep-10 11:29N 33°59' W 118°27'0 0.0
2017-Sep-10 10:59N 33°59' W 118°27'0 0.0
2017-Sep-10 10:29N 33°59' W 118°27'0 0.0
2017-Sep-10 09:59N 33°59' W 118°27'0 0.0
2017-Sep-10 09:29N 33°59' W 118°27'0 0.0
2017-Sep-10 08:59N 33°59' W 118°27'0 0.0
2017-Sep-10 08:20N 33°59' W 118°27'0 0.0
2017-Sep-10 07:59N 33°59' W 118°27'0 0.0
2017-Sep-10 07:29N 33°59' W 118°27'0 0.0
2017-Sep-10 06:59N 33°59' W 118°27'0 0.0
2017-Sep-10 06:29N 33°59' W 118°27'0 0.0
2017-Sep-10 05:59N 33°59' W 118°27'0 0.0
2017-Sep-10 05:29N 33°59' W 118°27'0 0.0
2017-Sep-10 04:56N 33°59' W 118°27'0 0.0
2017-Sep-10 04:26N 33°59' W 118°27'0 0.0
2017-Sep-10 03:59N 33°59' W 118°27'0 0.0
2017-Sep-10 03:20N 33°59' W 118°27'0 0.0
2017-Sep-10 00:44N 33°59' W 118°27'0 0.0
2017-Sep-09 03:52N 33°59' W 118°27'0 0.0
2017-Sep-09 03:19N 33°59' W 118°27'0 0.0
2017-Sep-09 02:55N 33°59' W 118°27'0 0.0
2017-Sep-09 02:10N 33°59' W 118°27'0 0.0
2017-Sep-09 01:58N 33°59' W 118°27'0 0.0
2017-Sep-09 01:19N 33°59' W 118°27'0 0.0
2017-Sep-09 00:52N 33°59' W 118°27'0 0.0
2017-Sep-09 00:25N 33°59' W 118°27'0 0.0
2017-Sep-08 23:55N 33°59' W 118°27'0 0.0
2017-Sep-08 23:19N 33°59' W 118°27'0 0.0
2017-Sep-08 22:58N 33°59' W 118°27'0 0.0
2017-Sep-08 22:28N 33°59' W 118°27'0 0.0
2017-Sep-08 21:52N 33°59' W 118°27'0 0.0
2017-Sep-08 20:19N 33°59' W 118°27'0 0.0
2017-Sep-08 18:31N 33°59' W 118°27'0 0.0
2017-Sep-08 17:46N 33°59' W 118°27'0 0.0
2017-Sep-08 17:22N 33°59' W 118°27'0 0.0
2017-Sep-08 16:55N 33°59' W 118°27'0 0.0
2017-Sep-08 15:52N 33°59' W 118°27'0 0.0
2017-Sep-08 14:43N 33°59' W 118°27'0 0.0
2017-Sep-08 14:25N 33°59' W 118°27'0 0.0
2017-Sep-08 13:58N 33°59' W 118°27'0 0.0
2017-Sep-08 13:25N 33°59' W 118°27'0 0.0
2017-Sep-08 12:58N 33°59' W 118°27'0 0.0
2017-Sep-08 10:16N 33°59' W 118°27'0 0.0
2017-Sep-08 09:52N 33°59' W 118°27'0 0.0
2017-Sep-08 09:28N 33°59' W 118°27'0 0.0
2017-Sep-07 14:01N 33°59' W 118°27'  
2017-Sep-04 16:04N 33°48' W 118°31'1 9.4
2017-Sep-04 15:58N 33°47' W 118°31'5 9.4
2017-Sep-04 15:27N 33°42' W 118°32'16 9.1
2017-Sep-04 13:43N 33°27' W 118°36'2 9.3
2017-Sep-04 13:30N 33°25' W 118°34'  
Track history (hours):
 
Tides and Currents Weather Stations Pressure Air Temp Water Temp Dewpoint Dewpoint Depression Visibility Wind Speed Wind Dir Waves Ship Positions

Traveler

Owner: Obel, Patrick R, Marina del Rey, CA. More information available from US FCC via Universal Licensing System and Coast Guard Vessel Documentation Center.

Last reported at 2017-Sep-12 05:50 UTC. Time now 2017-Sep-22 20:40 UTC.
Position N 33°59' W 118°27'.
Warning: this ship's position is 10 days out of date.

Length 19 m; draft 2 m.

Type: Other ship. MMSI: 367417780.

Date/timePositionNaut miles runAvg speedWind from/ knotsBaromVisibWave heightAir tempDewpointWater temp
2017-Sep-12 05:50N 33°59' W 118°27'0 0.0
2017-Sep-11 11:08N 33°59' W 118°27'0 0.0
2017-Sep-11 10:56N 33°59' W 118°27'0 0.0
2017-Sep-11 10:20N 33°59' W 118°27'0 0.0
2017-Sep-11 09:59N 33°59' W 118°27'0 0.0
2017-Sep-11 09:20N 33°59' W 118°27'0 0.0
2017-Sep-11 08:59N 33°59' W 118°27'0 0.0
2017-Sep-11 08:29N 33°59' W 118°27'0 0.0
2017-Sep-11 05:02N 33°59' W 118°27'0 0.0
2017-Sep-11 04:32N 33°59' W 118°27'0 0.0
2017-Sep-11 04:20N 33°59' W 118°27'0 0.0
2017-Sep-10 15:26N 33°59' W 118°27'0 0.0
2017-Sep-10 14:50N 33°59' W 118°27'0 0.0
2017-Sep-10 13:56N 33°59' W 118°27'0 0.0
2017-Sep-10 12:44N 33°59' W 118°27'0 0.0
2017-Sep-10 12:26N 33°59' W 118°27'0 0.0
2017-Sep-10 11:56N 33°59' W 118°27'0 0.0
2017-Sep-10 11:29N 33°59' W 118°27'0 0.0
2017-Sep-10 10:59N 33°59' W 118°27'0 0.0
2017-Sep-10 10:29N 33°59' W 118°27'0 0.0
2017-Sep-10 09:59N 33°59' W 118°27'0 0.0
2017-Sep-10 09:29N 33°59' W 118°27'0 0.0
2017-Sep-10 08:59N 33°59' W 118°27'0 0.0
2017-Sep-10 08:20N 33°59' W 118°27'0 0.0
2017-Sep-10 07:59N 33°59' W 118°27'0 0.0
2017-Sep-10 07:29N 33°59' W 118°27'0 0.0
2017-Sep-10 06:59N 33°59' W 118°27'0 0.0
2017-Sep-10 06:29N 33°59' W 118°27'0 0.0
2017-Sep-10 05:59N 33°59' W 118°27'0 0.0
2017-Sep-10 05:29N 33°59' W 118°27'0 0.0
2017-Sep-10 04:56N 33°59' W 118°27'0 0.0
2017-Sep-10 04:26N 33°59' W 118°27'0 0.0
2017-Sep-10 03:59N 33°59' W 118°27'0 0.0
2017-Sep-10 03:20N 33°59' W 118°27'0 0.0
2017-Sep-10 00:44N 33°59' W 118°27'0 0.0
2017-Sep-09 03:52N 33°59' W 118°27'0 0.0
2017-Sep-09 03:19N 33°59' W 118°27'0 0.0
2017-Sep-09 02:55N 33°59' W 118°27'0 0.0
2017-Sep-09 02:10N 33°59' W 118°27'0 0.0
2017-Sep-09 01:58N 33°59' W 118°27'0 0.0
2017-Sep-09 01:19N 33°59' W 118°27'0 0.0
2017-Sep-09 00:52N 33°59' W 118°27'0 0.0
2017-Sep-09 00:25N 33°59' W 118°27'0 0.0
2017-Sep-08 23:55N 33°59' W 118°27'0 0.0
2017-Sep-08 23:19N 33°59' W 118°27'0 0.0
2017-Sep-08 22:58N 33°59' W 118°27'0 0.0
2017-Sep-08 22:28N 33°59' W 118°27'0 0.0
2017-Sep-08 21:52N 33°59' W 118°27'0 0.0
2017-Sep-08 20:19N 33°59' W 118°27'0 0.0
2017-Sep-08 18:31N 33°59' W 118°27'0 0.0
2017-Sep-08 17:46N 33°59' W 118°27'0 0.0
2017-Sep-08 17:22N 33°59' W 118°27'0 0.0
2017-Sep-08 16:55N 33°59' W 118°27'0 0.0
2017-Sep-08 15:52N 33°59' W 118°27'0 0.0
2017-Sep-08 14:43N 33°59' W 118°27'0 0.0
2017-Sep-08 14:25N 33°59' W 118°27'0 0.0
2017-Sep-08 13:58N 33°59' W 118°27'0 0.0
2017-Sep-08 13:25N 33°59' W 118°27'0 0.0
2017-Sep-08 12:58N 33°59' W 118°27'0 0.0
2017-Sep-08 10:16N 33°59' W 118°27'0 0.0
2017-Sep-08 09:52N 33°59' W 118°27'0 0.0
2017-Sep-08 09:28N 33°59' W 118°27'0 0.0
2017-Sep-07 14:01N 33°59' W 118°27'  
2017-Sep-04 16:04N 33°48' W 118°31'1 9.4
2017-Sep-04 15:58N 33°47' W 118°31'5 9.4
2017-Sep-04 15:27N 33°42' W 118°32'16 9.1
2017-Sep-04 13:43N 33°27' W 118°36'2 9.3
2017-Sep-04 13:30N 33°25' W 118°34'  

Dump ship's entire track history